Time;durP1;ratioP1;P1;durP2;ratioP2;P2;SDS_P1;SDS_P2;PMS_P1;PMS_P2;Temp;Humidity;BMP_temperature;BMP_pressure;BME280_temperature;BME280_humidity;BME280_pressure;Samples;Min_cycle;Max_cycle;Signal;HPM_P1;HPM_P2
2023/05/22 00:01:45;;;;;;;2.55;1.42;;;;;;;;;;20916659;28;20549;-67
2023/05/22 00:11:46;;;;;;;3.42;1.48;;;;;;;;;;20915508;28;20115;-66
2023/05/22 00:21:50;;;;;;;4.38;1.40;;;;;;;;;;20913159;28;20059;-67
2023/05/22 00:31:51;;;;;;;2.95;1.33;;;;;;;;;;20914917;28;20521;-66
2023/05/22 00:41:52;;;;;;;2.28;1.25;;;;;;;;;;20913493;28;20045;-66
2023/05/22 00:51:53;;;;;;;2.30;1.27;;;;;;;;;;20914306;28;20099;-67
2023/05/22 01:01:55;;;;;;;2.80;1.60;;;;;;;;;;20914068;28;20564;-67
2023/05/22 01:12:06;;;;;;;3.38;1.40;;;;;;;;;;20913499;28;20049;-67
2023/05/22 01:22:07;;;;;;;3.80;1.80;;;;;;;;;;20918229;28;20057;-66
2023/05/22 01:32:10;;;;;;;8.10;2.50;;;;;;;;;;20929227;28;20052;-66
2023/05/22 01:42:11;;;;;;;3.88;1.95;;;;;;;;;;20928546;28;20087;-66
2023/05/22 01:52:17;;;;;;;5.05;3.08;;;;;;;;;;20927884;28;20118;-66
2023/05/22 02:02:19;;;;;;;5.72;3.22;;;;;;;;;;20926771;28;20052;-66
2023/05/22 02:12:21;;;;;;;5.85;3.78;;;;;;;;;;20926032;28;20082;-66
2023/05/22 02:22:22;;;;;;;6.78;3.53;;;;;;;;;;20925181;28;20059;-67
2023/05/22 02:32:23;;;;;;;6.85;3.65;;;;;;;;;;20924520;28;20555;-66
2023/05/22 02:42:24;;;;;;;7.38;4.90;;;;;;;;;;20923899;28;20048;-66
2023/05/22 02:52:27;;;;;;;5.72;4.05;;;;;;;;;;20923466;28;20452;-67
2023/05/22 03:02:28;;;;;;;11.18;4.82;;;;;;;;;;20922273;28;20049;-66
2023/05/22 03:12:29;;;;;;;8.30;5.28;;;;;;;;;;20921581;28;20490;-66
2023/05/22 03:22:31;;;;;;;7.13;5.00;;;;;;;;;;20920547;28;20060;-66
2023/05/22 03:32:36;;;;;;;7.93;5.05;;;;;;;;;;20918606;28;20045;-67
2023/05/22 03:42:37;;;;;;;7.20;4.07;;;;;;;;;;20917422;28;20044;-66
2023/05/22 03:52:38;;;;;;;8.00;4.45;;;;;;;;;;20918341;28;20081;-67
2023/05/22 04:02:43;;;;;;;7.95;5.22;;;;;;;;;;20917091;28;20055;-66
2023/05/22 04:12:44;;;;;;;11.18;8.23;;;;;;;;;;20915578;28;20055;-66
2023/05/22 04:22:47;;;;;;;7.78;4.80;;;;;;;;;;20915620;28;20134;-65
2023/05/22 04:32:48;;;;;;;7.65;4.88;;;;;;;;;;20915162;28;20494;-66
2023/05/22 04:42:53;;;;;;;6.40;4.68;;;;;;;;;;20914422;28;20146;-66
2023/05/22 04:52:54;;;;;;;7.28;4.68;;;;;;;;;;20913543;28;20375;-67
2023/05/22 05:02:56;;;;;;;6.63;3.65;;;;;;;;;;20913189;28;20128;-67
2023/05/22 05:12:57;;;;;;;8.02;3.65;;;;;;;;;;20912962;28;20053;-66
2023/05/22 05:22:58;;;;;;;4.20;2.63;;;;;;;;;;20912256;28;20057;-67
2023/05/22 05:32:59;;;;;;;3.20;2.03;;;;;;;;;;20912356;28;20060;-67
2023/05/22 05:43:01;;;;;;;3.80;2.00;;;;;;;;;;20912171;28;20433;-66
2023/05/22 05:53:02;;;;;;;6.25;1.92;;;;;;;;;;20910392;28;20077;-66
2023/05/22 06:03:03;;;;;;;4.90;1.98;;;;;;;;;;20911252;28;20045;-68
2023/05/22 06:13:04;;;;;;;3.97;1.88;;;;;;;;;;20924067;28;20512;-67
2023/05/22 06:23:05;;;;;;;9.10;3.13;;;;;;;;;;20924921;28;20429;-66
2023/05/22 06:33:06;;;;;;;4.50;2.50;;;;;;;;;;20923966;28;20072;-66
2023/05/22 06:43:07;;;;;;;5.38;1.83;;;;;;;;;;20923842;28;20072;-63
2023/05/22 06:53:08;;;;;;;3.28;1.70;;;;;;;;;;20922902;28;20049;-63
2023/05/22 07:03:10;;;;;;;6.03;2.00;;;;;;;;;;20921056;28;20506;-64
2023/05/22 07:13:12;;;;;;;3.97;1.67;;;;;;;;;;20920297;28;20383;-63
2023/05/22 07:23:13;;;;;;;3.55;1.80;;;;;;;;;;20918769;28;20489;-64
2023/05/22 07:33:14;;;;;;;4.57;2.13;;;;;;;;;;20919342;28;20100;-64
2023/05/22 07:43:15;;;;;;;3.63;1.30;;;;;;;;;;20917910;28;20052;-63
2023/05/22 07:53:17;;;;;;;5.18;2.00;;;;;;;;;;20918133;28;20045;-65
2023/05/22 08:03:18;;;;;;;5.57;2.50;;;;;;;;;;20915623;28;20131;-63
2023/05/22 08:13:19;;;;;;;9.27;3.85;;;;;;;;;;20914637;28;20037;-63
2023/05/22 08:23:20;;;;;;;7.30;2.63;;;;;;;;;;20914426;28;20060;-63
2023/05/22 08:33:21;;;;;;;5.95;2.17;;;;;;;;;;20912662;28;20132;-64
2023/05/22 08:43:23;;;;;;;4.32;2.60;;;;;;;;;;20912442;28;20091;-63
2023/05/22 08:53:25;;;;;;;5.20;2.38;;;;;;;;;;20911931;28;20049;-64
2023/05/22 09:03:27;;;;;;;5.57;2.80;;;;;;;;;;20911119;28;20060;-64
2023/05/22 09:13:29;;;;;;;4.35;2.60;;;;;;;;;;20910250;28;20495;-64
2023/05/22 09:23:30;;;;;;;4.30;2.17;;;;;;;;;;20909598;28;20049;-63
2023/05/22 09:33:32;;;;;;;3.70;2.25;;;;;;;;;;20910533;28;20445;-64
2023/05/22 09:43:33;;;;;;;5.68;2.60;;;;;;;;;;20918346;28;20399;-63
2023/05/22 09:53:34;;;;;;;3.90;2.40;;;;;;;;;;20927229;28;20079;-64
2023/05/22 10:03:37;;;;;;;3.95;2.10;;;;;;;;;;20926962;28;20441;-63
2023/05/22 10:13:40;;;;;;;2.33;1.85;;;;;;;;;;20926506;28;20406;-63
2023/05/22 10:23:42;;;;;;;3.58;1.90;;;;;;;;;;20924248;28;20499;-66
2023/05/22 10:33:46;;;;;;;3.08;1.98;;;;;;;;;;20923648;28;20041;-67
2023/05/22 10:43:51;;;;;;;2.53;1.67;;;;;;;;;;20922548;28;20142;-66
2023/05/22 10:53:54;;;;;;;3.97;1.80;;;;;;;;;;20920734;28;20041;-67
2023/05/22 11:03:57;;;;;;;6.53;1.90;;;;;;;;;;20922339;28;20048;-65
2023/05/22 11:14:02;;;;;;;3.45;1.58;;;;;;;;;;20919832;28;20041;-65
2023/05/22 11:24:07;;;;;;;6.68;1.50;;;;;;;;;;20920335;28;20045;-66
2023/05/22 11:34:08;;;;;;;4.45;1.73;;;;;;;;;;20918973;28;20171;-65
2023/05/22 11:44:09;;;;;;;3.63;1.80;;;;;;;;;;20917985;28;20041;-66
2023/05/22 11:54:11;;;;;;;3.75;1.83;;;;;;;;;;20918508;28;20048;-68
2023/05/22 12:04:12;;;;;;;3.92;1.50;;;;;;;;;;20915708;28;20080;-65
2023/05/22 12:14:13;;;;;;;3.58;1.55;;;;;;;;;;20916845;28;20079;-66
2023/05/22 12:24:15;;;;;;;3.85;1.45;;;;;;;;;;20915214;28;20194;-65
2023/05/22 12:34:17;;;;;;;2.63;1.30;;;;;;;;;;20914864;28;20128;-66
2023/05/22 12:44:18;;;;;;;2.35;1.40;;;;;;;;;;20912808;28;20045;-68
2023/05/22 12:54:19;;;;;;;3.88;1.50;;;;;;;;;;20913744;28;20098;-66
2023/05/22 13:04:20;;;;;;;2.78;0.93;;;;;;;;;;20911763;28;20110;-66
2023/05/22 13:14:21;;;;;;;2.80;1.25;;;;;;;;;;20911886;28;20041;-66
2023/05/22 13:24:22;;;;;;;3.88;1.60;;;;;;;;;;20928443;28;20063;-66
2023/05/22 13:34:23;;;;;;;2.60;1.20;;;;;;;;;;20927475;28;20052;-66
2023/05/22 13:44:25;;;;;;;3.13;1.40;;;;;;;;;;20929008;28;20049;-67
2023/05/22 13:54:26;;;;;;;3.80;1.58;;;;;;;;;;20927779;28;20045;-66
2023/05/22 14:04:27;;;;;;;2.67;1.52;;;;;;;;;;20926784;28;20045;-66
2023/05/22 14:14:29;;;;;;;4.35;1.80;;;;;;;;;;20926725;28;20045;-66
2023/05/22 14:24:30;;;;;;;2.92;1.40;;;;;;;;;;20925126;28;20059;-66
2023/05/22 14:34:31;;;;;;;2.60;1.48;;;;;;;;;;20924705;28;20521;-66
2023/05/22 14:44:32;;;;;;;4.32;1.38;;;;;;;;;;20924292;28;20485;-66
2023/05/22 14:54:33;;;;;;;3.22;1.27;;;;;;;;;;20923594;28;20120;-67
2023/05/22 15:04:34;;;;;;;3.95;1.70;;;;;;;;;;20922627;28;20126;-65
2023/05/22 15:14:35;;;;;;;3.35;1.20;;;;;;;;;;20921727;28;20049;-65
2023/05/22 15:24:36;;;;;;;4.05;1.10;;;;;;;;;;20920506;28;20071;-66
2023/05/22 15:34:38;;;;;;;4.78;1.05;;;;;;;;;;20920479;28;20540;-66
2023/05/22 15:44:39;;;;;;;2.95;1.73;;;;;;;;;;20918509;28;20448;-66
2023/05/22 15:54:40;;;;;;;5.45;1.77;;;;;;;;;;20917345;28;20064;-63
2023/05/22 16:04:41;;;;;;;5.57;1.73;;;;;;;;;;20917874;28;20474;-61
2023/05/22 16:14:42;;;;;;;5.32;2.63;;;;;;;;;;20915447;28;20045;-62
2023/05/22 16:24:43;;;;;;;4.82;1.67;;;;;;;;;;20914829;28;20067;-62
2023/05/22 16:34:44;;;;;;;3.10;1.60;;;;;;;;;;20914689;28;20041;-61
2023/05/22 16:44:46;;;;;;;4.90;1.85;;;;;;;;;;20914215;28;20591;-62
2023/05/22 16:54:47;;;;;;;5.13;1.50;;;;;;;;;;20914012;28;20052;-61
2023/05/22 17:04:48;;;;;;;6.18;1.77;;;;;;;;;;20913186;28;20041;-61
2023/05/22 17:14:49;;;;;;;1.88;1.40;;;;;;;;;;20912094;28;20091;-63
2023/05/22 17:24:50;;;;;;;5.03;1.88;;;;;;;;;;20911717;28;20507;-60
2023/05/22 17:34:51;;;;;;;4.22;2.35;;;;;;;;;;20914006;28;20076;-62
2023/05/22 17:44:52;;;;;;;2.67;1.50;;;;;;;;;;20911833;28;20063;-64
2023/05/22 17:54:54;;;;;;;6.95;1.85;;;;;;;;;;20911532;28;20056;-64
2023/05/22 18:04:55;;;;;;;3.08;1.77;;;;;;;;;;20916621;28;20144;-64
2023/05/22 18:14:56;;;;;;;5.30;2.00;;;;;;;;;;20925805;28;20086;-64
2023/05/22 18:24:58;;;;;;;4.22;2.53;;;;;;;;;;20923230;28;20528;-65
2023/05/22 18:35:01;;;;;;;6.05;2.90;;;;;;;;;;20922998;28;20494;-63
2023/05/22 18:45:02;;;;;;;8.43;2.30;;;;;;;;;;20922666;28;20037;-61
2023/05/22 18:55:04;;;;;;;2.30;1.55;;;;;;;;;;20921295;28;20077;-60
2023/05/22 19:05:05;;;;;;;4.03;1.90;;;;;;;;;;20922012;28;20128;-61
2023/05/22 19:15:07;;;;;;;7.80;2.03;;;;;;;;;;20920399;28;20093;-61
2023/05/22 19:25:08;;;;;;;8.02;5.15;;;;;;;;;;20918995;28;20130;-60
2023/05/22 19:35:12;;;;;;;3.78;1.70;;;;;;;;;;20919382;28;20509;-61
2023/05/22 19:45:13;;;;;;;3.72;1.60;;;;;;;;;;20918284;28;20066;-60
2023/05/22 19:55:15;;;;;;;5.43;1.77;;;;;;;;;;20916024;28;20465;-61
2023/05/22 20:05:16;;;;;;;2.67;1.23;;;;;;;;;;20916481;28;20110;-62
2023/05/22 20:15:17;;;;;;;1.65;0.95;;;;;;;;;;20914814;28;20045;-60
2023/05/22 20:25:20;;;;;;;2.33;1.40;;;;;;;;;;20914881;28;20498;-61
2023/05/22 20:35:21;;;;;;;4.28;1.83;;;;;;;;;;20914615;28;20053;-61
2023/05/22 20:45:22;;;;;;;3.53;1.92;;;;;;;;;;20912625;28;20080;-61
2023/05/22 20:55:24;;;;;;;3.80;2.33;;;;;;;;;;20912853;28;20052;-60
2023/05/22 21:05:25;;;;;;;5.70;3.15;;;;;;;;;;20912937;28;20406;-60
2023/05/22 21:15:26;;;;;;;6.22;2.60;;;;;;;;;;20912896;28;20049;-60
2023/05/22 21:25:27;;;;;;;6.10;2.60;;;;;;;;;;20911872;28;20433;-62
2023/05/22 21:35:28;;;;;;;4.38;2.40;;;;;;;;;;20912079;28;20041;-62
2023/05/22 21:45:30;;;;;;;10.50;3.05;;;;;;;;;;20926282;28;20041;-61
2023/05/22 21:55:36;;;;;;;4.22;2.85;;;;;;;;;;20926907;28;20491;-61
2023/05/22 22:05:37;;;;;;;3.35;2.20;;;;;;;;;;20926000;28;20045;-61
2023/05/22 22:15:38;;;;;;;5.13;2.70;;;;;;;;;;20925629;28;20037;-62
2023/05/22 22:25:39;;;;;;;5.43;2.83;;;;;;;;;;20924891;28;20092;-61
2023/05/22 22:35:40;;;;;;;5.80;2.42;;;;;;;;;;20923585;28;20040;-61
2023/05/22 22:45:42;;;;;;;6.55;2.88;;;;;;;;;;20923809;28;20391;-61
2023/05/22 22:55:43;;;;;;;3.88;2.40;;;;;;;;;;20922820;28;20045;-60
2023/05/22 23:05:44;;;;;;;3.72;1.92;;;;;;;;;;20922000;28;20128;-61
2023/05/22 23:15:45;;;;;;;3.28;1.98;;;;;;;;;;20921422;28;20044;-60
2023/05/22 23:25:46;;;;;;;6.88;2.33;;;;;;;;;;20919846;28;20138;-61
2023/05/22 23:35:47;;;;;;;5.72;2.28;;;;;;;;;;20919974;28;20059;-60
2023/05/22 23:45:48;;;;;;;6.25;2.30;;;;;;;;;;20918909;28;20114;-61
2023/05/22 23:55:49;;;;;;;4.32;2.60;;;;;;;;;;20916856;28;20072;-60
